Weather History for KBAC - April, 2013

Change the Weather History Date:

Wednesday, April 10, 2013

  Actual Average (KJMS) Record (KJMS)
Temperature  
Mean Temperature 26 °F 40 °F  
Max Temperature 32 °F 52 °F 85 °F (1910)
Min Temperature 19 °F 28 °F 12 °F (1997)
Degree Days  
Heating Degree Days 40 25  
Month to date heating degree days 275  
Since 1 July heating degree days 8195  
Cooling Degree Days 0 0  
Month to date cooling degree days 0  
Year to date cooling degree days 0  
Moisture  
Dew Point 21 °F    
Average Humidity 79    
Maximum Humidity 93    
Minimum Humidity 64    
Precipitation  
Precipitation 0.00 in 0.03 in 0.68 in (1950)
Month to date precipitation 0.32  
Year to date precipitation 2.01  
Sea Level Pressure  
Sea Level Pressure 30.18 in    
Wind  
Wind Speed 12 mph (NNE)    
Max Wind Speed 20 mph    
Max Gust Speed 29 mph    
Visibility 10 miles    
Events Snow    
T = Trace of Precipitation, MM = Missing Value Source: NWS Daily Summary

Daily Weather History Graph

Daily Weather History Graph

Search for Another Location

Airport or City:

Trip Planner

Search our weather history database for the weather conditions in past years. The results will help you decide how hot, cold, wet, or windy it might be!

Date:

Astronomy

Apr. 10, 2013 Rise Set
Actual Time 6:53 AM CDT 8:14 PM CDT
Civil Twilight 6:21 AM CDT 8:45 PM CDT
Nautical Twilight 5:43 AM CDT 9:23 PM CDT
Astronomical Twilight 5:03 AM CDT 10:04 PM CDT
Moon 6:48 AM CDT (4/10) 8:55 PM CDT (4/10)
Length of Visible Light 14h 23m
Length of Day
13h 20m
New Moon, 0% of the Moon is Illuminated
Apr 10
New Moon
Apr 18
First Quarter
Apr 25
Full
May 2
Last Quarter
May 9
New

Hourly Weather History & Observations

Time (CDT) Temp. Windchill Dew Point Humidity Pressure Visibility Wind Dir Wind Speed Gust Speed Precip Events Conditions
12:15 AM 21.2 °F 9.5 °F 19.4 °F 93% 30.31 in 10.0 mi North 11.5 mph - N/A   Scattered Clouds
12:35 AM 21.2 °F 8.9 °F 19.4 °F 93% 30.28 in 10.0 mi North 12.7 mph - N/A   Overcast
12:55 AM 21.2 °F 9.5 °F 19.4 °F 93% 30.31 in 10.0 mi NNW 11.5 mph - N/A   Overcast
1:15 AM 21.2 °F 9.5 °F 19.4 °F 93% 30.34 in 10.0 mi NNW 11.5 mph - N/A   Scattered Clouds
1:35 AM 21.2 °F 8.9 °F 19.4 °F 93% 30.34 in 10.0 mi NNW 12.7 mph - N/A   Partly Cloudy
1:55 AM 21.2 °F 10.1 °F 19.4 °F 93% 30.35 in 10.0 mi NNW 10.4 mph - N/A   Partly Cloudy
2:15 AM 21.2 °F 8.9 °F 17.6 °F 86% 30.33 in 10.0 mi NNW 12.7 mph - N/A   Partly Cloudy
2:55 AM 19.4 °F 7.9 °F 17.6 °F 93% 30.30 in 10.0 mi North 10.4 mph - N/A   Scattered Clouds
3:15 AM 19.4 °F 7.2 °F 17.6 °F 93% 30.28 in 10.0 mi North 11.5 mph - N/A   Partly Cloudy
3:35 AM 19.4 °F 7.2 °F 17.6 °F 93% 30.24 in 10.0 mi North 11.5 mph - N/A   Partly Cloudy
3:55 AM 19.4 °F 4.1 °F 17.6 °F 93% 30.17 in 10.0 mi NNE 18.4 mph 23.0 mph N/A   Partly Cloudy
4:15 AM 23.0 °F 8.3 °F 17.6 °F 80% 30.13 in 10.0 mi NNE 19.6 mph 28.8 mph N/A Snow Light Snow
4:35 AM 23.0 °F 9.6 °F 17.6 °F 80% 30.17 in 10.0 mi NE 16.1 mph 20.7 mph N/A Snow Light Snow
4:55 AM 23.0 °F 13.1 °F 17.6 °F 80% 30.21 in 10.0 mi NE 9.2 mph - N/A   Clear
5:15 AM 23.0 °F 13.1 °F 17.6 °F 80% 30.21 in 10.0 mi NE 9.2 mph - N/A   Clear
5:35 AM 23.0 °F 12.4 °F 17.6 °F 80% 30.23 in 10.0 mi NNE 10.4 mph - N/A   Clear
5:55 AM 23.0 °F 13.1 °F 17.6 °F 80% 30.20 in 10.0 mi NNE 9.2 mph - N/A   Partly Cloudy
6:15 AM 23.0 °F 13.9 °F 17.6 °F 80% 30.24 in 10.0 mi NNE 8.1 mph - N/A   Partly Cloudy
6:35 AM 23.0 °F 14.7 °F 17.6 °F 80% 30.25 in 10.0 mi NNE 6.9 mph - N/A   Partly Cloudy
6:55 AM 23.0 °F 15.8 °F 17.6 °F 80% 30.27 in 10.0 mi North 5.8 mph - N/A   Scattered Clouds
7:15 AM 23.0 °F 13.9 °F 19.4 °F 86% 30.28 in 10.0 mi NNW 8.1 mph - N/A   Overcast
7:35 AM 23.0 °F 13.1 °F 19.4 °F 86% 30.27 in 10.0 mi NNW 9.2 mph - N/A   Overcast
7:55 AM 23.0 °F 13.1 °F 19.4 °F 86% 30.27 in 10.0 mi North 9.2 mph - N/A   Mostly Cloudy
8:15 AM 23.0 °F 12.4 °F 19.4 °F 86% 30.27 in 10.0 mi North 10.4 mph - N/A   Mostly Cloudy
8:35 AM 23.0 °F 14.7 °F 19.4 °F 86% 30.27 in 10.0 mi North 6.9 mph - N/A   Mostly Cloudy
8:55 AM 23.0 °F 13.1 °F 19.4 °F 86% 30.26 in 10.0 mi North 9.2 mph - N/A   Mostly Cloudy
9:15 AM 24.8 °F 16.1 °F 19.4 °F 80% 30.25 in 10.0 mi North 8.1 mph - N/A   Mostly Cloudy
9:35 AM 24.8 °F 15.3 °F 21.2 °F 86% 30.23 in 10.0 mi NNE 9.2 mph - N/A   Scattered Clouds
9:55 AM 24.8 °F 16.1 °F 21.2 °F 86% 30.23 in 10.0 mi NNE 8.1 mph - N/A   Scattered Clouds
10:15 AM 26.6 °F 18.2 °F 19.4 °F 74% 30.24 in 10.0 mi NNE 8.1 mph - N/A   Partly Cloudy
10:35 AM 26.6 °F 18.2 °F 19.4 °F 74% 30.23 in 10.0 mi North 8.1 mph - N/A   Partly Cloudy
10:55 AM 28.4 °F 19.7 °F 21.2 °F 74% 30.23 in 10.0 mi North 9.2 mph - N/A   Partly Cloudy
11:15 AM 28.4 °F 18.5 °F 21.2 °F 74% 30.22 in 10.0 mi North 11.5 mph - N/A   Scattered Clouds
11:35 AM 28.4 °F 19.1 °F 21.2 °F 74% 30.23 in 10.0 mi North 10.4 mph - N/A   Partly Cloudy
12:15 PM 30.2 °F 19.8 °F 23.0 °F 75% 30.20 in 10.0 mi NNE 13.8 mph - N/A   Clear
12:35 PM 30.2 °F 20.2 °F 21.2 °F 69% 30.21 in 10.0 mi NNE 12.7 mph - N/A   Clear
12:55 PM 32.0 °F 22.1 °F 21.2 °F 64% 30.21 in 10.0 mi NNE 13.8 mph 18.4 mph N/A   Clear
1:15 PM 32.0 °F 22.5 °F 23.0 °F 69% 30.20 in 10.0 mi NNE 12.7 mph - N/A   Mostly Cloudy
1:35 PM 32.0 °F 22.5 °F 21.2 °F 64% 30.19 in 10.0 mi NNE 12.7 mph - N/A   Overcast
2:15 PM 32.0 °F 21.2 °F 23.0 °F 69% 30.18 in 10.0 mi NNE 16.1 mph - N/A   Mostly Cloudy
2:35 PM 32.0 °F 21.6 °F 23.0 °F 69% 30.18 in 10.0 mi NNE 15.0 mph - N/A   Overcast
2:55 PM 32.0 °F 22.1 °F 23.0 °F 69% 30.18 in 10.0 mi NNE 13.8 mph - N/A   Mostly Cloudy
3:15 PM 32.0 °F 22.5 °F 21.2 °F 64% 30.18 in 10.0 mi NNE 12.7 mph - N/A   Mostly Cloudy
3:35 PM 32.0 °F 22.5 °F 21.2 °F 64% 30.16 in 10.0 mi NNE 12.7 mph - N/A   Mostly Cloudy
3:55 PM 32.0 °F 23.0 °F 21.2 °F 64% 30.16 in 10.0 mi NNE 11.5 mph - N/A   Partly Cloudy
4:15 PM 32.0 °F 22.5 °F 21.2 °F 64% 30.15 in 10.0 mi North 12.7 mph - N/A   Clear
4:35 PM 32.0 °F 23.6 °F 21.2 °F 64% 30.15 in 10.0 mi North 10.4 mph 17.3 mph N/A   Partly Cloudy
4:55 PM 32.0 °F 22.1 °F 23.0 °F 69% 30.12 in 10.0 mi North 13.8 mph - N/A   Scattered Clouds
5:15 PM 32.0 °F 23.0 °F 23.0 °F 69% 30.13 in 10.0 mi NNE 11.5 mph - N/A   Partly Cloudy
5:35 PM 32.0 °F 22.1 °F 21.2 °F 64% 30.11 in 10.0 mi NNE 13.8 mph - N/A   Partly Cloudy
5:55 PM 32.0 °F 23.0 °F 23.0 °F 69% 30.11 in 10.0 mi NNE 11.5 mph - N/A   Scattered Clouds
6:15 PM 32.0 °F 23.0 °F 21.2 °F 64% 30.09 in 10.0 mi NE 11.5 mph - N/A   Mostly Cloudy
6:35 PM 32.0 °F 22.5 °F 23.0 °F 69% 30.09 in 10.0 mi NE 12.7 mph 18.4 mph N/A   Mostly Cloudy
6:55 PM 30.2 °F 19.8 °F 23.0 °F 75% 30.08 in 10.0 mi NNE 13.8 mph - N/A   Overcast
7:15 PM 30.2 °F 19.8 °F 23.0 °F 75% 30.08 in 10.0 mi NNE 13.8 mph - N/A   Overcast
7:35 PM 30.2 °F 20.8 °F 23.0 °F 75% 30.09 in 10.0 mi NNE 11.5 mph - N/A   Overcast
7:55 PM 30.2 °F 19.8 °F 24.8 °F 80% 30.07 in 10.0 mi NNE 13.8 mph - N/A   Overcast
8:15 PM 28.4 °F 19.1 °F 23.0 °F 80% 30.06 in 10.0 mi NNE 10.4 mph - N/A   Overcast
8:35 PM 28.4 °F 17.5 °F 23.0 °F 80% 30.05 in 10.0 mi NNE 13.8 mph - N/A   Overcast
8:55 PM 28.4 °F 18.5 °F 24.8 °F 86% 30.04 in 10.0 mi NNE 11.5 mph - N/A   Overcast
9:15 PM 28.4 °F 18.0 °F 24.8 °F 86% 30.03 in 10.0 mi NNE 12.7 mph - N/A   Overcast
9:55 PM 30.2 °F 20.2 °F 24.8 °F 80% 30.05 in 10.0 mi NNE 12.7 mph 17.3 mph N/A   Overcast
10:15 PM 28.4 °F 18.5 °F 24.8 °F 86% 30.05 in 10.0 mi NNE 11.5 mph 17.3 mph N/A   Overcast
10:35 PM 28.4 °F 19.1 °F 24.8 °F 86% 30.04 in 10.0 mi NNE 10.4 mph 16.1 mph N/A   Overcast
10:55 PM 28.4 °F 19.1 °F 24.8 °F 86% 30.04 in 10.0 mi North 10.4 mph - N/A   Overcast
11:15 PM 28.4 °F 19.1 °F 24.8 °F 86% 30.03 in 10.0 mi NNE 10.4 mph - N/A   Overcast
11:35 PM 28.4 °F 18.5 °F 23.0 °F 80% 30.03 in 10.0 mi NNE 11.5 mph - N/A   Overcast
11:55 PM 28.4 °F 18.5 °F 23.0 °F 80% 30.02 in 10.0 mi NNE 11.5 mph 16.1 mph N/A   Overcast